Sandestin, Florida
Current Conditions -  °F | °C
As of 10:53 PM on Monday 20 Oct 2014 (Local Time) from KDTS Reporting Station
Clear Clear  
Wind Chill: 67°   Ceiling: Unl
Heat Index: 67°   Visibility: 10mi
Dew Point: 59°   Wind: 7mph
Humidity: 76%   Direction: 350°N
Pressure: 30"   Gusts: NA
Location:  30.3738°N, 86.3602°W
Report Text: KDTS 210353Z AUTO 35006KT 10SM CLR 19/15 A3000 RMK AO2 SLP159 T01940150 TSNO
Loading
Personal Weather Stations






























Interactive Weather Map
Tropical Storm Tracking
New forecast layout! Learn more

10-Day Weather Forecast

Advertisements
Track Severe Weather on mobile